Terminal Aerodrome Forecast
Issued by NWS Raleigh/Durham, NC

Home | Current Version | Previous Version | Text Only | Print | Product List | Glossary On
Versions: 1 2 3 4 5 6 7 8 9 10 11 12 13 14 15 16 17 18 19
000
FTUS42 KRAH 282335
TAFFAY
TAF
KFAY 282335Z 2900/2924 VRB05KT P6SM FEW080
      TEMPO 2914/2917 04009KT BKN015
     FM291700 05007KT P6SM SCT030 BKN035=

USA.gov is the U.S. government's official web portal to all federal, state and local government web resources and services.